KFET/FET METAR and TAF weather

Enter ICAO airport designator
Station Type Date Time Source
KFET METAR 2020/01/27 10:55 UTC NOAA

KFET 271055Z AUTO 30007KT 10SM OVC013 02/00 A3000 RMK AO2 T00180002


Station Type Date Time Source
KFET Decoded METAR 2020/01/27 10:55 UTC NOAA

Fremont Municipal Airport, NE, United States (KFET) 41-27N 096-31W
Jan 27, 2020 - 05:55 AM EST / 2020.01.27 1055 UTC
Wind: from the WNW (300 degrees) at 8 MPH (7 KT):0
Visibility: 10 mile(s):0
Sky conditions: overcast
Temperature: 35.2 F (1.8 C)
Dew Point: 32.4 F (0.2 C)
Relative Humidity: 89%
Pressure (altimeter): 30 in. Hg (1015 hPa)
ob: KFET 271055Z AUTO 30007KT 10SM OVC013 02/00 A3000 RMK AO2 T00180002
cycle: 11

Station Type Date Time Source
KFET TAF UTC NOAA

Error!

Example: see airport list